Time;durP1;ratioP1;P1;durP2;ratioP2;P2;SDS_P1;SDS_P2;PMS_P1;PMS_P2;Temp;Humidity;BMP_temperature;BMP_pressure;BME280_temperature;BME280_humidity;BME280_pressure;Samples;Min_cycle;Max_cycle;Signal;HPM_P1;HPM_P2
2024/02/07 00:01:23;;;;;;;2.83;2.50;;;;;;;10.83;51.94;97215.28;5022421;28;20188;-69
2024/02/07 00:03:49;;;;;;;4.67;2.33;;;;;;;10.70;52.44;97205.19;5037545;28;20454;-69
2024/02/07 00:06:16;;;;;;;4.30;2.47;;;;;;;10.66;52.35;97203.03;5032829;28;20700;-68
2024/02/07 00:08:42;;;;;;;4.03;2.70;;;;;;;10.72;52.64;97198.00;5035100;28;20199;-69
2024/02/07 00:11:07;;;;;;;4.97;2.63;;;;;;;10.73;52.15;97210.13;5035286;28;20955;-69
2024/02/07 00:13:33;;;;;;;6.83;3.10;;;;;;;10.78;52.42;97193.09;5029457;28;20191;-69
2024/02/07 00:15:59;;;;;;;4.00;2.50;;;;;;;10.73;52.27;97196.19;5039550;28;20245;-69
2024/02/07 00:18:24;;;;;;;4.80;2.83;;;;;;;10.63;52.56;97195.47;5029372;28;20211;-70
2024/02/07 00:20:50;;;;;;;4.47;2.60;;;;;;;10.67;52.35;97189.78;5028854;28;20964;-69
2024/02/07 00:23:15;;;;;;;4.20;2.10;;;;;;;10.75;52.34;97197.72;5033205;28;20218;-68
2024/02/07 00:25:41;;;;;;;4.67;2.83;;;;;;;10.62;52.49;97186.81;5028822;28;20187;-70
2024/02/07 00:28:07;;;;;;;3.97;2.90;;;;;;;10.77;52.46;97179.19;5027630;28;20211;-70
2024/02/07 00:30:32;;;;;;;5.70;2.77;;;;;;;10.86;51.75;97172.22;5034851;28;20333;-68
2024/02/07 00:32:57;;;;;;;5.03;2.80;;;;;;;10.95;51.85;97167.84;5037720;28;20237;-68
2024/02/07 00:35:23;;;;;;;2.93;2.63;;;;;;;10.83;52.06;97168.09;5028881;28;20219;-69
2024/02/07 00:37:48;;;;;;;8.40;3.00;;;;;;;10.74;52.24;97174.25;5029821;28;20212;-69
2024/02/07 00:40:14;;;;;;;4.60;2.90;;;;;;;10.88;51.77;97157.16;5030459;28;20648;-69
2024/02/07 00:42:39;;;;;;;7.10;2.80;;;;;;;10.67;52.15;97153.06;5033459;28;20187;-68
2024/02/07 00:45:05;;;;;;;2.83;2.30;;;;;;;10.74;52.21;97153.28;5033414;28;20637;-69
2024/02/07 00:47:30;;;;;;;3.90;2.63;;;;;;;10.67;52.40;97153.06;5034543;28;20546;-69
2024/02/07 00:49:56;;;;;;;15.87;2.90;;;;;;;10.70;52.39;97155.41;5038939;28;20269;-69
2024/02/07 00:52:22;;;;;;;4.67;2.47;;;;;;;10.74;52.14;97150.66;5034017;28;20203;-70
2024/02/07 00:54:47;;;;;;;6.60;2.47;;;;;;;10.62;52.72;97144.88;5037698;28;20188;-68
2024/02/07 00:57:13;;;;;;;3.70;2.90;;;;;;;10.59;52.55;97140.75;5037705;28;20544;-71
2024/02/07 00:59:38;;;;;;;4.27;3.20;;;;;;;10.60;52.72;97129.28;5038536;28;20215;-70
2024/02/07 01:02:04;;;;;;;3.93;2.40;;;;;;;10.67;52.61;97128.69;5037603;28;20207;-70
2024/02/07 01:04:29;;;;;;;3.33;3.03;;;;;;;10.62;52.79;97130.94;5037621;28;20175;-69
2024/02/07 01:06:55;;;;;;;4.30;2.70;;;;;;;10.68;52.68;97127.69;5038888;28;20180;-69
2024/02/07 01:09:21;;;;;;;5.67;2.70;;;;;;;10.66;52.57;97129.66;5042751;28;20199;-69
2024/02/07 01:11:47;;;;;;;3.90;2.80;;;;;;;10.66;52.63;97129.66;5046414;28;20215;-68
2024/02/07 01:14:13;;;;;;;4.83;2.40;;;;;;;10.79;52.48;97130.06;5034668;28;20419;-68
2024/02/07 01:16:40;;;;;;;8.57;2.77;;;;;;;10.71;52.47;97132.66;5029603;28;20578;-68
2024/02/07 01:19:06;;;;;;;7.73;2.87;;;;;;;10.82;52.41;97124.50;5027391;28;20496;-70
2024/02/07 01:21:32;;;;;;;4.67;2.77;;;;;;;10.77;52.69;97124.16;5031190;28;20423;-68
2024/02/07 01:23:57;;;;;;;5.70;3.00;;;;;;;10.81;52.52;97127.28;5037441;28;20433;-68
2024/02/07 01:26:23;;;;;;;5.77;3.00;;;;;;;10.74;52.81;97116.59;5027990;28;20873;-67
2024/02/07 01:28:49;;;;;;;3.00;2.20;;;;;;;10.82;52.66;97103.53;5027468;28;20637;-68
2024/02/07 01:31:14;;;;;;;4.67;3.10;;;;;;;10.82;52.83;97110.56;5034781;28;20625;-68
2024/02/07 01:33:42;;;;;;;6.70;3.40;;;;;;;10.68;52.91;97125.09;5027619;28;20518;-67
2024/02/07 01:36:07;;;;;;;2.93;2.60;;;;;;;10.57;53.30;97113.88;5027335;28;20211;-68
2024/02/07 01:38:33;;;;;;;7.67;3.20;;;;;;;10.58;53.44;97097.19;5026815;28;20867;-68
2024/02/07 01:40:58;;;;;;;5.00;2.60;;;;;;;10.66;53.38;97098.19;5035010;28;20264;-68
2024/02/07 01:43:29;;;;;;;5.07;3.20;;;;;;;10.68;53.26;97096.25;5031199;28;20226;-67
2024/02/07 01:45:56;;;;;;;4.70;2.87;;;;;;;10.50;53.77;97098.94;5027946;28;20205;-68
2024/02/07 01:48:22;;;;;;;5.10;3.57;;;;;;;10.51;53.75;97093.53;5026986;28;20446;-68
2024/02/07 01:50:50;;;;;;;5.00;2.77;;;;;;;10.62;53.83;97081.13;5038703;28;20419;-69
2024/02/07 01:53:17;;;;;;;5.10;3.10;;;;;;;10.71;53.34;97080.22;5027269;28;20434;-67
2024/02/07 01:55:44;;;;;;;6.70;3.57;;;;;;;10.51;54.00;97085.66;5028611;28;20426;-68
2024/02/07 01:58:10;;;;;;;7.63;3.00;;;;;;;10.65;53.89;97071.16;5025189;28;20462;-68
2024/02/07 02:00:39;;;;;;;4.40;2.80;;;;;;;10.65;53.48;97073.78;5027676;28;20434;-69
2024/02/07 02:03:04;;;;;;;7.57;3.10;;;;;;;10.62;53.57;97081.13;5035451;28;20561;-68
2024/02/07 02:05:29;;;;;;;3.03;2.73;;;;;;;10.67;53.64;97065.78;5027515;28;20430;-68
2024/02/07 02:07:55;;;;;;;3.47;3.00;;;;;;;10.62;53.75;97061.00;5028077;28;20827;-68
2024/02/07 02:10:21;;;;;;;4.00;3.20;;;;;;;10.52;54.09;97060.31;5039121;28;20186;-68
2024/02/07 02:12:46;;;;;;;5.57;3.13;;;;;;;10.63;53.86;97051.31;5030587;28;20249;-68
2024/02/07 02:15:13;;;;;;;3.73;3.10;;;;;;;10.45;54.40;97054.84;5037969;28;20704;-68
2024/02/07 02:17:38;;;;;;;4.43;3.17;;;;;;;10.48;54.51;97053.72;5030849;28;20204;-68
2024/02/07 02:20:04;;;;;;;4.90;2.90;;;;;;;10.34;54.93;97062.91;5032144;28;20794;-68
2024/02/07 02:22:47;;;;;;;3.67;2.70;;;;;;;10.43;54.99;97049.75;5040779;28;20211;-69
2024/02/07 02:25:25;;;;;;;6.13;2.87;;;;;;;10.62;54.25;97039.19;5032562;28;20484;-67
2024/02/07 02:28:21;;;;;;;5.47;3.30;;;;;;;10.70;54.13;97041.88;5034288;28;20839;-68
2024/02/07 02:30:53;;;;;;;5.83;3.00;;;;;;;10.70;54.26;97031.41;5029939;28;20467;-69
2024/02/07 02:33:21;;;;;;;5.90;2.90;;;;;;;10.68;54.23;97039.41;5032850;28;20438;-69
2024/02/07 02:35:47;;;;;;;5.20;2.63;;;;;;;10.63;54.27;97035.59;5035177;28;21135;-70
2024/02/07 02:38:13;;;;;;;3.93;2.50;;;;;;;10.54;54.67;97032.13;5028950;28;20523;-68
2024/02/07 02:40:39;;;;;;;8.80;3.20;;;;;;;10.51;54.78;97022.78;5037736;28;20183;-68
2024/02/07 02:43:05;;;;;;;3.63;2.70;;;;;;;10.57;54.86;97021.34;5032410;28;20427;-70
2024/02/07 02:45:31;;;;;;;3.17;2.83;;;;;;;10.63;54.66;97017.25;5034101;28;20460;-68
2024/02/07 02:47:57;;;;;;;5.40;3.30;;;;;;;10.53;54.98;97014.75;5030731;28;21062;-69
2024/02/07 02:50:26;;;;;;;4.53;2.87;;;;;;;10.64;54.88;97011.03;5036384;28;20431;-70
2024/02/07 02:52:52;;;;;;;5.53;3.10;;;;;;;10.55;55.10;97008.41;5029384;28;20191;-68
2024/02/07 02:55:17;;;;;;;6.10;3.03;;;;;;;10.70;54.56;96999.94;5032319;28;20438;-68
2024/02/07 02:57:45;;;;;;;3.70;2.90;;;;;;;10.67;54.90;97000.25;5039264;28;20449;-68
2024/02/07 03:00:14;;;;;;;4.60;2.83;;;;;;;10.60;55.18;96974.66;5030948;28;20188;-68
2024/02/07 03:02:43;;;;;;;3.63;2.70;;;;;;;10.68;54.84;96981.72;5030576;28;20782;-68
2024/02/07 03:08:05;;;;;;;5.63;3.10;;;;;;;10.72;54.99;96982.22;5031874;28;20484;-67
2024/02/07 03:10:31;;;;;;;3.77;2.90;;;;;;;10.77;55.08;96981.78;5030639;28;20770;-67
2024/02/07 03:12:56;;;;;;;3.97;2.93;;;;;;;10.63;55.50;96983.19;5040593;28;20438;-67
2024/02/07 03:15:22;;;;;;;4.50;2.57;;;;;;;10.71;55.09;96975.38;5029468;28;20207;-66
2024/02/07 03:17:48;;;;;;;6.37;3.50;;;;;;;10.74;55.25;96972.41;5030094;28;20212;-67
2024/02/07 03:20:14;;;;;;;4.13;3.00;;;;;;;10.64;55.31;96974.34;5029962;28;20645;-68
2024/02/07 03:22:40;;;;;;;3.43;2.50;;;;;;;10.72;55.23;96966.50;5029070;28;20908;-67
2024/02/07 03:25:07;;;;;;;3.70;2.43;;;;;;;10.87;54.90;96970.16;5029878;28;20473;-67
2024/02/07 03:27:34;;;;;;;7.07;3.10;;;;;;;10.94;54.66;96969.53;5023572;28;20180;-68
2024/02/07 03:30:00;;;;;;;5.67;3.10;;;;;;;10.83;54.88;96978.50;5025307;28;20458;-69
2024/02/07 03:32:25;;;;;;;5.10;3.07;;;;;;;10.83;54.90;96973.25;5032232;28;20462;-67
2024/02/07 03:34:54;;;;;;;6.27;2.90;;;;;;;10.89;54.91;96968.22;5031769;28;20179;-67
2024/02/07 03:37:19;;;;;;;5.80;2.97;;;;;;;10.82;55.09;96967.22;5037017;28;20337;-67
2024/02/07 03:39:45;;;;;;;7.07;3.00;;;;;;;10.97;54.77;96966.56;5031629;28;20534;-69
2024/02/07 03:42:10;;;;;;;3.63;2.90;;;;;;;10.79;55.06;96967.53;5029763;28;20230;-68
2024/02/07 03:44:37;;;;;;;7.43;2.87;;;;;;;10.93;54.86;96965.28;5029385;28;20275;-67
2024/02/07 03:47:03;;;;;;;4.90;2.93;;;;;;;11.07;54.46;96952.34;5037654;28;20175;-68
2024/02/07 03:49:29;;;;;;;3.73;2.50;;;;;;;11.02;54.58;96962.53;5032580;28;20573;-67
2024/02/07 03:51:54;;;;;;;7.33;2.90;;;;;;;11.15;54.39;96962.03;5029500;28;21043;-68
2024/02/07 03:54:20;;;;;;;5.13;2.80;;;;;;;11.28;53.92;96952.88;5029131;28;20192;-67
2024/02/07 03:56:45;;;;;;;3.40;2.77;;;;;;;11.25;54.00;96945.31;5030798;28;20211;-67
2024/02/07 03:59:11;;;;;;;5.50;2.83;;;;;;;11.23;53.99;96958.59;5028964;28;20200;-68
2024/02/07 04:01:36;;;;;;;4.90;3.00;;;;;;;11.27;54.20;96948.59;5032785;28;20734;-67
2024/02/07 04:04:05;;;;;;;3.03;2.50;;;;;;;11.31;53.93;96948.09;5031131;28;20187;-68
2024/02/07 04:06:31;;;;;;;4.10;2.90;;;;;;;11.19;54.29;96944.16;5031691;28;20179;-68
2024/02/07 04:08:56;;;;;;;3.97;2.63;;;;;;;11.26;54.14;96949.56;5037128;28;20492;-67
2024/02/07 05:16:18;;;;;;;3.97;2.70;;;;;;;11.41;54.68;96882.34;5042295;28;20448;-69
2024/02/07 05:18:43;;;;;;;6.40;2.73;;;;;;;11.37;54.52;96888.91;5026832;28;20537;-68
2024/02/07 05:21:12;;;;;;;3.80;2.60;;;;;;;11.13;55.45;96897.63;5027954;28;20183;-69
2024/02/07 05:23:39;;;;;;;4.40;2.77;;;;;;;11.38;54.93;96880.06;5037431;28;20241;-68
2024/02/07 05:26:05;;;;;;;5.90;3.13;;;;;;;11.31;55.06;96892.22;5031935;28;20427;-69
2024/02/07 05:28:30;;;;;;;4.23;2.30;;;;;;;11.20;55.30;96888.94;5028748;28;21154;-68
2024/02/07 05:30:56;;;;;;;2.97;2.73;;;;;;;11.21;55.24;96889.75;5030582;28;20601;-68
2024/02/07 05:33:21;;;;;;;3.33;2.70;;;;;;;11.39;54.70;96879.06;5026753;28;20330;-69
2024/02/07 05:35:47;;;;;;;6.27;3.10;;;;;;;11.24;55.08;96894.66;5025953;28;20182;-68
2024/02/07 05:38:13;;;;;;;3.87;2.73;;;;;;;11.36;54.79;96871.53;5026883;28;20227;-69
2024/02/07 05:40:38;;;;;;;5.00;3.07;;;;;;;11.03;55.55;96879.41;5037250;28;20178;-68
2024/02/07 05:43:05;;;;;;;3.10;2.57;;;;;;;11.24;55.09;96876.31;5035626;28;20176;-68
2024/02/07 05:45:30;;;;;;;6.60;2.97;;;;;;;11.20;55.37;96886.31;5032412;28;20636;-66
2024/02/07 05:47:56;;;;;;;4.70;2.90;;;;;;;11.42;54.56;96862.16;5032628;28;20454;-69
2024/02/07 05:50:22;;;;;;;4.10;3.27;;;;;;;11.32;54.89;96867.63;5038468;28;20241;-69
2024/02/07 05:52:47;;;;;;;3.80;2.80;;;;;;;11.44;54.50;96871.53;5030711;28;20180;-70
2024/02/07 05:55:13;;;;;;;10.53;2.70;;;;;;;11.53;54.60;96870.53;5031533;28;20448;-69
2024/02/07 05:57:38;;;;;;;3.07;2.77;;;;;;;11.51;54.60;96867.25;5035616;28;20222;-68
2024/02/07 06:00:05;;;;;;;4.67;3.33;;;;;;;11.32;54.87;96872.84;5030452;28;20175;-69
2024/02/07 06:02:31;;;;;;;3.20;2.90;;;;;;;11.33;54.77;96862.19;5031055;28;20211;-68
2024/02/07 06:04:57;;;;;;;5.57;2.80;;;;;;;11.30;55.25;96870.38;5028852;28;20524;-70
2024/02/07 06:07:22;;;;;;;11.63;2.93;;;;;;;11.24;55.05;96872.84;5030623;28;20606;-70
2024/02/07 06:09:48;;;;;;;5.63;2.70;;;;;;;11.18;55.31;96875.16;5038335;28;20500;-70
2024/02/07 06:12:15;;;;;;;4.73;2.67;;;;;;;11.40;55.07;96864.16;5031277;28;20179;-71
2024/02/07 06:14:41;;;;;;;3.90;2.80;;;;;;;11.31;55.13;96863.34;5029969;28;20195;-70
2024/02/07 06:17:07;;;;;;;5.43;3.30;;;;;;;11.48;54.80;96859.69;5034428;28;20450;-67
2024/02/07 06:19:32;;;;;;;3.87;3.00;;;;;;;11.24;55.47;96857.94;5039373;28;20969;-69
2024/02/07 06:21:57;;;;;;;3.13;2.77;;;;;;;11.35;55.17;96862.84;5041064;28;20183;-69
2024/02/07 06:24:23;;;;;;;6.07;3.33;;;;;;;11.46;54.85;96848.56;5030761;28;20183;-68
2024/02/07 06:26:48;;;;;;;4.50;3.03;;;;;;;11.52;54.95;96836.59;5036781;28;20845;-69
2024/02/07 06:29:14;;;;;;;7.17;3.67;;;;;;;11.37;55.36;96841.69;5038418;28;20599;-69
2024/02/07 06:31:39;;;;;;;8.40;3.87;;;;;;;11.47;55.07;96828.38;5030594;28;20233;-68
2024/02/07 06:34:05;;;;;;;5.00;3.10;;;;;;;11.25;55.63;96816.78;5030811;28;20183;-69
2024/02/07 06:36:32;;;;;;;11.03;3.37;;;;;;;11.45;54.99;96814.63;5030773;28;20187;-68
2024/02/07 06:38:58;;;;;;;5.67;3.30;;;;;;;11.59;54.62;96807.88;5035157;28;20231;-69
2024/02/07 06:41:23;;;;;;;5.63;3.30;;;;;;;11.32;55.07;96817.78;5032746;28;20529;-69
2024/02/07 06:43:49;;;;;;;5.17;3.40;;;;;;;11.55;54.81;96815.25;5029850;28;20262;-68
2024/02/07 06:46:14;;;;;;;5.73;3.63;;;;;;;11.51;54.72;96822.63;5037698;28;20546;-69
2024/02/07 06:48:40;;;;;;;7.53;3.50;;;;;;;11.42;55.08;96818.41;5028220;28;20776;-70
2024/02/07 06:51:05;;;;;;;5.07;3.23;;;;;;;11.50;54.78;96826.25;5034894;28;20203;-69
2024/02/07 06:53:30;;;;;;;5.70;3.30;;;;;;;11.57;54.77;96808.03;5034177;28;20270;-68
2024/02/07 06:55:56;;;;;;;15.40;3.77;;;;;;;11.60;54.20;96814.72;5029262;28;20267;-70
2024/02/07 06:58:21;;;;;;;4.53;3.20;;;;;;;11.59;54.28;96807.88;5030082;28;20219;-69
2024/02/07 07:00:47;;;;;;;7.10;3.23;;;;;;;11.42;54.72;96810.53;5029147;28;20183;-68
2024/02/07 07:03:12;;;;;;;4.90;3.40;;;;;;;11.60;54.40;96814.72;5030366;28;20623;-68
2024/02/07 07:05:38;;;;;;;6.53;3.50;;;;;;;11.51;54.73;96809.50;5030585;28;20706;-69
2024/02/07 07:08:03;;;;;;;4.20;3.10;;;;;;;11.66;53.76;96808.81;5031062;28;20249;-70
2024/02/07 07:10:29;;;;;;;7.70;3.77;;;;;;;11.72;53.71;96813.38;5033613;28;20187;-69
2024/02/07 07:12:54;;;;;;;5.10;3.70;;;;;;;11.64;53.83;96810.78;5041769;28;20229;-69
2024/02/07 07:15:20;;;;;;;4.20;3.10;;;;;;;11.69;53.69;96811.13;5029703;28;20230;-70
2024/02/07 07:17:46;;;;;;;3.90;3.07;;;;;;;11.62;53.93;96826.72;5034940;28;20200;-68
2024/02/07 07:20:11;;;;;;;8.33;4.10;;;;;;;11.57;53.96;96817.72;5033858;28;20188;-69
2024/02/07 07:22:36;;;;;;;5.30;2.90;;;;;;;11.59;53.78;96831.50;5039203;28;20185;-71
2024/02/07 07:25:02;;;;;;;4.77;3.10;;;;;;;11.78;53.52;96812.72;5034717;28;20270;-71
2024/02/07 07:27:28;;;;;;;7.70;3.10;;;;;;;11.93;53.04;96822.53;5033368;28;20192;-71
2024/02/07 07:29:53;;;;;;;5.60;3.43;;;;;;;11.77;53.21;96834.72;5029546;28;20215;-70
2024/02/07 07:32:18;;;;;;;5.20;3.50;;;;;;;11.77;53.35;96826.03;5035267;28;20273;-70
2024/02/07 07:34:44;;;;;;;4.10;3.27;;;;;;;11.72;53.38;96825.72;5029111;28;20266;-70
2024/02/07 07:37:09;;;;;;;3.80;2.80;;;;;;;11.81;53.29;96830.78;5027041;28;20243;-70
2024/02/07 07:39:35;;;;;;;8.10;3.20;;;;;;;11.93;53.05;96820.69;5030913;28;20223;-71
2024/02/07 07:42:00;;;;;;;4.37;3.03;;;;;;;12.08;52.90;96815.59;5032995;28;20190;-70
2024/02/07 07:44:26;;;;;;;5.70;3.17;;;;;;;11.96;52.75;96817.75;5031393;28;20180;-71
2024/02/07 07:46:52;;;;;;;9.40;3.37;;;;;;;11.92;52.68;96807.75;5031138;28;20262;-72
2024/02/07 07:49:18;;;;;;;8.73;4.20;;;;;;;11.93;52.90;96812.81;5036631;28;20257;-70
2024/02/07 07:51:43;;;;;;;6.83;3.37;;;;;;;12.09;52.60;96793.59;5029890;28;20818;-70
2024/02/07 07:54:09;;;;;;;8.07;3.27;;;;;;;12.06;52.43;96796.56;5028128;28;20262;-69
2024/02/07 07:56:34;;;;;;;8.83;3.27;;;;;;;11.78;53.17;96799.59;5031762;28;20211;-69
2024/02/07 07:59:00;;;;;;;8.13;3.17;;;;;;;12.09;52.49;96796.22;5033402;28;20229;-69
2024/02/07 08:01:27;;;;;;;5.83;3.03;;;;;;;12.11;52.72;96804.72;5030031;28;20186;-71
2024/02/07 08:03:53;;;;;;;7.33;3.33;;;;;;;12.01;52.69;96790.19;5027966;28;20194;-70
2024/02/07 08:06:18;;;;;;;7.90;3.30;;;;;;;12.12;52.71;96785.34;5032047;28;20509;-71
2024/02/07 08:08:44;;;;;;;7.90;3.90;;;;;;;12.06;52.73;96791.31;5028551;28;20959;-71
2024/02/07 08:11:09;;;;;;;5.50;3.00;;;;;;;12.17;52.41;96786.66;5032440;28;20180;-70
2024/02/07 08:13:35;;;;;;;4.23;3.00;;;;;;;12.02;53.04;96794.44;5026457;28;20184;-71
2024/02/07 08:16:01;;;;;;;4.27;3.20;;;;;;;12.22;52.17;96797.47;5031025;28;20218;-71
2024/02/07 08:18:29;;;;;;;4.80;3.13;;;;;;;12.04;52.93;96798.53;5026084;28;20342;-71
2024/02/07 08:20:54;;;;;;;6.13;3.40;;;;;;;12.16;52.67;96800.78;5036188;28;20425;-70
2024/02/07 08:23:19;;;;;;;5.67;3.43;;;;;;;12.23;52.40;96806.97;5035182;28;20490;-70
2024/02/07 08:25:45;;;;;;;7.67;3.07;;;;;;;12.24;52.78;96798.09;5031056;28;20188;-69
2024/02/07 08:28:10;;;;;;;5.47;3.50;;;;;;;12.04;53.15;96782.78;5028679;28;20849;-70
2024/02/07 08:30:36;;;;;;;4.40;3.10;;;;;;;12.00;53.50;96802.47;5023248;28;20339;-70
2024/02/07 08:33:01;;;;;;;11.10;3.00;;;;;;;12.03;53.42;96794.28;5028218;28;20234;-70
2024/02/07 08:35:27;;;;;;;6.67;3.00;;;;;;;12.25;52.63;96790.06;5037982;28;20189;-69
2024/02/07 08:37:55;;;;;;;5.57;2.70;;;;;;;12.20;53.10;96791.56;5019473;28;20216;-69
2024/02/07 08:40:20;;;;;;;4.80;3.33;;;;;;;12.24;52.64;96790.22;5025436;28;20267;-70
2024/02/07 08:42:45;;;;;;;5.17;2.90;;;;;;;12.21;52.88;96783.50;5030513;28;20426;-70
2024/02/07 08:45:12;;;;;;;3.47;3.00;;;;;;;12.40;52.51;96784.88;5020602;28;20188;-70
2024/02/07 08:47:37;;;;;;;6.53;3.30;;;;;;;12.39;52.59;96780.59;5024931;28;20184;-70
2024/02/07 08:50:03;;;;;;;5.57;3.20;;;;;;;12.30;52.63;96771.16;5029604;28;20444;-70
2024/02/07 08:52:28;;;;;;;9.30;3.47;;;;;;;12.44;52.40;96780.91;5041097;28;20240;-70
2024/02/07 08:54:54;;;;;;;4.70;2.87;;;;;;;12.50;52.49;96782.03;5026207;28;20284;-70
2024/02/07 08:57:19;;;;;;;3.00;2.47;;;;;;;12.54;52.46;96761.47;5027334;28;20203;-70
2024/02/07 08:59:45;;;;;;;11.03;3.23;;;;;;;12.58;52.49;96762.75;5020705;28;20212;-71
2024/02/07 09:02:12;;;;;;;6.67;3.13;;;;;;;12.57;52.21;96766.38;5032606;28;20265;-71
2024/02/07 09:04:37;;;;;;;7.00;2.93;;;;;;;12.71;52.34;96757.72;5019396;28;20267;-72
2024/02/07 09:07:03;;;;;;;5.03;2.80;;;;;;;12.55;52.47;96768.34;5025069;28;21023;-69
2024/02/07 09:09:28;;;;;;;9.70;3.40;;;;;;;12.58;52.71;96766.19;5022581;28;20203;-71
2024/02/07 09:11:54;;;;;;;6.40;3.20;;;;;;;12.22;53.59;96765.94;5024299;28;20184;-71
2024/02/07 09:14:19;;;;;;;4.30;2.70;;;;;;;12.44;53.40;96765.16;4987572;28;20734;-71
2024/02/07 09:16:44;;;;;;;5.77;3.20;;;;;;;12.31;53.69;96751.75;5025909;28;20294;-71
2024/02/07 09:19:10;;;;;;;5.30;3.50;;;;;;;12.34;53.55;96758.47;5033235;28;20254;-71
2024/02/07 09:21:35;;;;;;;5.03;3.10;;;;;;;12.52;53.39;96753.75;5029674;28;20253;-70
2024/02/07 09:24:01;;;;;;;4.83;3.40;;;;;;;12.59;53.19;96765.19;5025710;28;20192;-71
2024/02/07 09:26:30;;;;;;;5.67;3.60;;;;;;;12.43;53.60;96750.38;5024873;28;20184;-68
2024/02/07 09:28:55;;;;;;;8.10;3.27;;;;;;;12.62;53.68;96753.50;5022985;28;20839;-69
2024/02/07 09:31:21;;;;;;;5.07;3.00;;;;;;;12.59;53.04;96744.16;5022862;28;20419;-69
2024/02/07 09:33:46;;;;;;;8.93;3.60;;;;;;;12.60;52.98;96739.75;5025190;28;20556;-69
2024/02/07 09:36:12;;;;;;;7.00;3.97;;;;;;;12.43;53.91;96737.22;5028108;28;20194;-70
2024/02/07 09:38:38;;;;;;;5.30;3.10;;;;;;;12.51;53.51;96740.78;5023882;28;20212;-70
2024/02/07 09:41:04;;;;;;;5.53;3.63;;;;;;;12.52;53.67;96735.38;5032048;28;20275;-69
2024/02/07 09:43:32;;;;;;;8.70;3.77;;;;;;;12.49;53.64;96735.72;5022199;28;20263;-71
2024/02/07 09:45:58;;;;;;;5.40;4.00;;;;;;;12.66;52.95;96733.75;5024046;28;20488;-71
2024/02/07 09:48:27;;;;;;;12.10;4.00;;;;;;;12.64;53.18;96748.88;5027394;28;20438;-71
2024/02/07 09:50:58;;;;;;;8.50;3.50;;;;;;;12.75;52.99;96748.47;5027418;28;20426;-71
2024/02/07 09:53:24;;;;;;;5.97;3.70;;;;;;;12.57;53.55;96737.47;5023850;28;20450;-70
2024/02/07 09:55:53;;;;;;;9.77;3.57;;;;;;;12.68;53.19;96737.03;5034959;28;20456;-71
2024/02/07 09:58:21;;;;;;;7.47;4.20;;;;;;;12.56;53.62;96759.47;5029453;28;20989;-72
2024/02/07 10:00:49;;;;;;;7.93;4.03;;;;;;;12.86;52.94;96730.63;5023511;28;20843;-70
2024/02/07 10:03:17;;;;;;;4.73;3.10;;;;;;;12.96;52.47;96749.63;5024878;28;21170;-69
2024/02/07 10:05:50;;;;;;;6.20;3.67;;;;;;;12.59;53.31;96736.28;5012715;28;20427;-69
2024/02/07 10:08:16;;;;;;;8.07;3.20;;;;;;;12.72;53.07;96732.22;5025548;28;20458;-69
2024/02/07 10:10:46;;;;;;;8.97;3.33;;;;;;;12.84;52.77;96743.16;5021597;28;20424;-70
2024/02/07 10:13:13;;;;;;;8.80;3.70;;;;;;;12.62;53.41;96747.44;5018887;28;20414;-68
2024/02/07 10:15:39;;;;;;;5.90;3.33;;;;;;;12.80;52.96;96747.13;5033324;28;20481;-69
2024/02/07 10:18:05;;;;;;;6.40;3.20;;;;;;;12.75;53.21;96731.88;5027437;28;20490;-68
2024/02/07 10:20:30;;;;;;;5.90;3.20;;;;;;;12.95;52.63;96732.22;5026384;28;20192;-71
2024/02/07 10:22:55;;;;;;;7.93;3.00;;;;;;;12.87;52.69;96734.88;5031392;28;20216;-71
2024/02/07 10:25:21;;;;;;;3.10;2.80;;;;;;;13.15;52.49;96718.53;5031648;28;20277;-71
2024/02/07 10:27:46;;;;;;;7.17;3.03;;;;;;;12.86;52.94;96738.50;5028473;28;20188;-70
2024/02/07 10:30:12;;;;;;;6.93;2.87;;;;;;;12.83;52.84;96729.19;5034585;28;20238;-70
2024/02/07 10:32:38;;;;;;;4.60;2.63;;;;;;;13.09;52.16;96722.69;5031614;28;20188;-70
2024/02/07 10:35:10;;;;;;;6.00;2.80;;;;;;;13.29;51.89;96738.75;5030898;28;20426;-70
2024/02/07 10:37:40;;;;;;;4.53;2.93;;;;;;;13.05;52.15;96730.13;5025089;28;20724;-70
2024/02/07 10:40:06;;;;;;;6.53;2.43;;;;;;;13.15;52.32;96729.88;5030114;28;20974;-71
2024/02/07 10:42:31;;;;;;;5.47;2.70;;;;;;;12.82;52.87;96726.72;5036715;28;20469;-71
2024/02/07 10:45:10;;;;;;;7.60;2.90;;;;;;;13.00;52.91;96715.88;5030370;28;20454;-71
2024/02/07 10:47:37;;;;;;;10.90;2.80;;;;;;;13.15;52.39;96724.63;5037536;28;20244;-72
2024/02/07 10:50:04;;;;;;;3.80;2.17;;;;;;;12.93;53.01;96707.06;5036190;28;20434;-70
2024/02/07 10:52:29;;;;;;;3.60;2.90;;;;;;;13.26;52.49;96707.53;5034217;28;20520;-71
2024/02/07 10:54:55;;;;;;;5.17;3.10;;;;;;;13.48;51.83;96691.88;5031365;28;21210;-69
2024/02/07 10:57:27;;;;;;;4.60;3.00;;;;;;;13.34;51.75;96711.91;5038283;28;20211;-71
2024/02/07 10:59:57;;;;;;;8.60;3.57;;;;;;;13.49;51.62;96698.75;5013131;28;20500;-71
2024/02/07 11:02:23;;;;;;;3.87;2.23;;;;;;;13.55;51.52;96695.41;5023798;28;20922;-71
2024/02/07 11:04:49;;;;;;;3.63;2.70;;;;;;;13.55;51.73;96703.31;5032703;28;20521;-71
2024/02/07 11:07:16;;;;;;;7.60;2.77;;;;;;;13.55;51.44;96689.31;5027503;28;20559;-71
2024/02/07 11:09:45;;;;;;;3.60;2.67;;;;;;;13.24;52.32;96683.22;5028296;28;20454;-71
2024/02/07 11:12:12;;;;;;;3.50;2.53;;;;;;;13.15;52.28;96684.31;5038002;28;20422;-71
2024/02/07 11:14:39;;;;;;;4.60;2.57;;;;;;;13.20;52.27;96668.81;5038590;28;20441;-69
2024/02/07 11:17:07;;;;;;;8.03;2.57;;;;;;;13.34;52.16;96665.38;5027879;28;20465;-70
2024/02/07 11:19:33;;;;;;;4.73;2.73;;;;;;;13.50;51.68;96668.81;5037177;28;20442;-72
2024/02/07 11:21:59;;;;;;;6.70;2.60;;;;;;;13.21;52.38;96662.56;5031349;28;20425;-71
2024/02/07 11:24:25;;;;;;;4.77;2.53;;;;;;;13.43;51.78;96654.75;5044970;28;20640;-70
2024/02/07 11:26:50;;;;;;;2.83;2.50;;;;;;;13.53;51.56;96655.28;5035200;28;20426;-70
2024/02/07 11:29:16;;;;;;;5.57;2.60;;;;;;;13.33;52.37;96652.38;5029718;28;20208;-70
2024/02/07 11:31:42;;;;;;;10.67;2.80;;;;;;;13.44;51.85;96657.19;5028137;28;20191;-70
2024/02/07 11:34:08;;;;;;;8.33;3.00;;;;;;;13.42;51.84;96656.56;5026363;28;20665;-72
2024/02/07 11:36:34;;;;;;;5.13;2.50;;;;;;;13.52;51.70;96645.75;5027997;28;20423;-71
2024/02/07 11:38:59;;;;;;;5.87;2.10;;;;;;;13.67;51.34;96640.47;5027001;28;20310;-72
2024/02/07 11:41:25;;;;;;;5.10;3.13;;;;;;;13.79;50.93;96648.69;5042793;28;20226;-71
2024/02/07 11:43:53;;;;;;;4.80;2.97;;;;;;;13.48;51.73;96640.03;5025544;28;20192;-73
2024/02/07 11:46:20;;;;;;;6.03;2.30;;;;;;;13.67;51.00;96635.19;5028103;28;20183;-70
2024/02/07 11:48:51;;;;;;;2.57;2.37;;;;;;;13.72;50.83;96626.75;5028330;28;20533;-69
2024/02/07 11:51:17;;;;;;;3.23;2.33;;;;;;;13.93;50.81;96634.66;5029790;28;20430;-70
2024/02/07 11:53:42;;;;;;;3.17;2.20;;;;;;;13.72;51.00;96626.75;5028600;28;20465;-69
2024/02/07 11:56:29;;;;;;;3.63;2.10;;;;;;;13.80;50.76;96618.72;5028670;28;20645;-70
2024/02/07 11:58:55;;;;;;;5.50;2.20;;;;;;;13.58;51.31;96629.22;5024475;28;20302;-71
2024/02/07 12:01:21;;;;;;;6.20;2.30;;;;;;;13.73;50.93;96621.28;5029038;28;20885;-70
2024/02/07 12:03:56;;;;;;;2.30;2.10;;;;;;;13.78;51.19;96620.72;5029567;28;20271;-71
2024/02/07 12:06:22;;;;;;;4.10;2.33;;;;;;;14.04;50.07;96614.06;5030466;28;20476;-71
2024/02/07 12:08:47;;;;;;;5.10;2.00;;;;;;;14.00;50.25;96608.38;5032320;28;20446;-70
2024/02/07 12:11:13;;;;;;;3.30;2.10;;;;;;;14.05;50.33;96618.34;5028994;28;20190;-69
2024/02/07 12:13:38;;;;;;;2.20;2.00;;;;;;;14.10;49.99;96602.78;5029108;28;20266;-70
2024/02/07 12:16:05;;;;;;;2.30;2.07;;;;;;;14.27;49.79;96614.69;5032987;28;20196;-71
2024/02/07 12:18:31;;;;;;;6.30;2.07;;;;;;;14.09;50.00;96595.91;5027304;28;20290;-71
2024/02/07 12:21:02;;;;;;;3.47;2.40;;;;;;;14.18;49.85;96605.28;5029136;28;20859;-70
2024/02/07 12:23:32;;;;;;;6.80;1.80;;;;;;;14.15;50.00;96595.13;5030263;28;20513;-70
2024/02/07 12:26:02;;;;;;;7.70;1.40;;;;;;;13.90;50.05;96600.78;5028995;28;20431;-70
2024/02/07 12:28:27;;;;;;;6.50;2.10;;;;;;;13.77;50.69;96593.59;5024323;28;20535;-70
2024/02/07 12:30:59;;;;;;;6.60;2.00;;;;;;;13.92;50.61;96590.88;5029451;28;20496;-70
2024/02/07 12:33:24;;;;;;;2.93;2.00;;;;;;;14.32;49.48;96590.38;5027813;28;20602;-71
2024/02/07 12:35:59;;;;;;;3.07;1.60;;;;;;;14.32;49.31;96600.94;5031742;28;20429;-70
2024/02/07 12:38:25;;;;;;;4.17;1.67;;;;;;;14.20;49.38;96592.75;5028244;28;20214;-71